Time;durP1;ratioP1;P1;durP2;ratioP2;P2;SDS_P1;SDS_P2;PMS_P1;PMS_P2;Temp;Humidity;BMP_temperature;BMP_pressure;BME280_temperature;BME280_humidity;BME280_pressure;Samples;Min_cycle;Max_cycle;Signal;HPM_P1;HPM_P2
2022/02/20 00:02:56;;;;;;;15.87;9.97;;;;;;;;;;10536965;28;20467;-62
2022/02/20 00:07:57;;;;;;;16.30;9.80;;;;;;;;;;10536017;28;20441;-63
2022/02/20 00:12:59;;;;;;;16.67;10.52;;;;;;;;;;10536384;28;20493;-62
2022/02/20 00:18:01;;;;;;;14.80;9.18;;;;;;;;;;10535108;28;20498;-70
2022/02/20 00:23:03;;;;;;;19.05;9.77;;;;;;;;;;10536015;28;20027;-63
2022/02/20 00:28:04;;;;;;;16.13;9.52;;;;;;;;;;10529245;28;20361;-63
2022/02/20 00:33:05;;;;;;;15.95;10.13;;;;;;;;;;10535364;28;20028;-68
2022/02/20 00:38:07;;;;;;;16.20;9.68;;;;;;;;;;10534852;28;20098;-69
2022/02/20 00:43:08;;;;;;;14.65;9.23;;;;;;;;;;10534697;28;20040;-68
2022/02/20 00:48:08;;;;;;;16.08;10.13;;;;;;;;;;10534669;28;20421;-72
2022/02/20 00:53:08;;;;;;;14.80;9.37;;;;;;;;;;10534749;28;20027;-66
2022/02/20 00:58:09;;;;;;;13.70;8.77;;;;;;;;;;10533752;28;21044;-61
2022/02/20 01:03:09;;;;;;;16.92;8.75;;;;;;;;;;10534455;28;20387;-61
2022/02/20 01:08:10;;;;;;;14.10;9.00;;;;;;;;;;10533793;28;20573;-71
2022/02/20 01:13:10;;;;;;;12.40;8.97;;;;;;;;;;10533764;28;20035;-72
2022/02/20 01:18:10;;;;;;;14.83;9.00;;;;;;;;;;10533596;28;20486;-62
2022/02/20 01:23:11;;;;;;;13.43;7.90;;;;;;;;;;10532154;28;20883;-64
2022/02/20 01:28:11;;;;;;;12.70;7.80;;;;;;;;;;10530205;28;20396;-63
2022/02/20 01:33:12;;;;;;;13.60;8.38;;;;;;;;;;10529173;28;20031;-65
2022/02/20 01:38:15;;;;;;;12.10;8.15;;;;;;;;;;10533099;28;20028;-62
2022/02/20 01:43:16;;;;;;;16.92;8.70;;;;;;;;;;10532945;28;20028;-66
2022/02/20 01:48:17;;;;;;;11.20;8.10;;;;;;;;;;10533288;28;20063;-69
2022/02/20 01:53:18;;;;;;;13.40;8.90;;;;;;;;;;10533095;28;20032;-67
2022/02/20 01:58:18;;;;;;;12.13;7.57;;;;;;;;;;10532783;28;20078;-67
2022/02/20 02:03:20;;;;;;;10.82;7.72;;;;;;;;;;10533168;28;20035;-68
2022/02/20 02:08:21;;;;;;;15.15;7.55;;;;;;;;;;10533250;28;20028;-67
2022/02/20 02:13:21;;;;;;;10.53;7.47;;;;;;;;;;10533196;28;20107;-66
2022/02/20 02:18:22;;;;;;;11.63;7.17;;;;;;;;;;10532545;28;20699;-68
2022/02/20 02:23:22;;;;;;;11.63;7.97;;;;;;;;;;10530854;28;20550;-68
2022/02/20 02:28:23;;;;;;;9.00;6.72;;;;;;;;;;10532008;28;20024;-66
2022/02/20 02:33:31;;;;;;;7.97;6.43;;;;;;;;;;10529264;28;20103;-67
2022/02/20 02:38:32;;;;;;;9.57;6.95;;;;;;;;;;10529146;28;20020;-66
2022/02/20 02:43:34;;;;;;;9.25;6.90;;;;;;;;;;10536767;28;20043;-66
2022/02/20 02:48:38;;;;;;;10.13;7.03;;;;;;;;;;10539836;28;20020;-68
2022/02/20 02:53:39;;;;;;;8.15;6.40;;;;;;;;;;10537703;28;20024;-67
2022/02/20 02:58:39;;;;;;;9.03;7.10;;;;;;;;;;10539064;28;20048;-61
2022/02/20 03:03:40;;;;;;;9.13;5.60;;;;;;;;;;10538873;28;20107;-62
2022/02/20 03:08:41;;;;;;;7.67;5.80;;;;;;;;;;10538553;28;20028;-61
2022/02/20 03:13:41;;;;;;;9.52;6.45;;;;;;;;;;10538495;28;20441;-62
2022/02/20 03:18:41;;;;;;;8.70;6.03;;;;;;;;;;10538302;28;20042;-62
2022/02/20 03:23:42;;;;;;;8.47;6.33;;;;;;;;;;10538304;28;20031;-64
2022/02/20 03:28:42;;;;;;;8.57;6.17;;;;;;;;;;10537992;28;20040;-62
2022/02/20 03:33:42;;;;;;;6.93;5.50;;;;;;;;;;10537882;28;20028;-62
2022/02/20 03:38:43;;;;;;;8.00;6.50;;;;;;;;;;10531362;28;20119;-62
2022/02/20 03:43:43;;;;;;;7.17;6.00;;;;;;;;;;10538040;28;20024;-68
2022/02/20 03:48:44;;;;;;;7.95;5.68;;;;;;;;;;10537821;28;20437;-68
2022/02/20 03:53:44;;;;;;;8.05;5.65;;;;;;;;;;10537048;28;20473;-68
2022/02/20 03:58:44;;;;;;;8.50;6.13;;;;;;;;;;10536483;28;20040;-69
2022/02/20 04:03:45;;;;;;;7.43;5.47;;;;;;;;;;10536761;28;20460;-68
2022/02/20 04:08:45;;;;;;;6.70;5.80;;;;;;;;;;10536161;28;20255;-68
2022/02/20 04:13:46;;;;;;;7.90;5.65;;;;;;;;;;10536201;28;20099;-67
2022/02/20 04:18:46;;;;;;;7.63;5.20;;;;;;;;;;10535437;28;20491;-68
2022/02/20 04:23:46;;;;;;;6.47;5.50;;;;;;;;;;10535806;28;20036;-69
2022/02/20 04:28:47;;;;;;;6.43;5.30;;;;;;;;;;10535998;28;20119;-67
2022/02/20 04:33:48;;;;;;;8.27;4.82;;;;;;;;;;10534997;28;20445;-71
2022/02/20 04:38:49;;;;;;;6.50;5.53;;;;;;;;;;10531708;28;20030;-65
2022/02/20 04:43:50;;;;;;;6.45;4.68;;;;;;;;;;10535095;28;20231;-70
2022/02/20 04:48:51;;;;;;;6.50;5.40;;;;;;;;;;10530929;28;20048;-67
2022/02/20 04:53:51;;;;;;;6.57;4.93;;;;;;;;;;10533783;28;20498;-68
2022/02/20 04:58:52;;;;;;;7.05;4.97;;;;;;;;;;10533620;28;20073;-62
2022/02/20 05:03:53;;;;;;;6.28;4.75;;;;;;;;;;10533821;28;20020;-61
2022/02/20 05:08:54;;;;;;;6.83;4.77;;;;;;;;;;10533576;28;20043;-61
2022/02/20 05:13:55;;;;;;;8.05;5.28;;;;;;;;;;10534123;28;20441;-63
2022/02/20 05:18:56;;;;;;;4.78;4.30;;;;;;;;;;10533842;28;20470;-61
2022/02/20 05:23:56;;;;;;;7.23;4.70;;;;;;;;;;10533551;28;20122;-62
2022/02/20 05:28:56;;;;;;;6.93;5.10;;;;;;;;;;10533595;28;20464;-62
2022/02/20 05:33:57;;;;;;;6.37;5.00;;;;;;;;;;10533441;28;20817;-63
2022/02/20 05:38:57;;;;;;;6.43;5.00;;;;;;;;;;10533137;28;20411;-63
2022/02/20 05:43:58;;;;;;;6.83;4.57;;;;;;;;;;10533205;28;20020;-62
2022/02/20 05:49:00;;;;;;;5.47;4.47;;;;;;;;;;10531153;28;20349;-68
2022/02/20 05:54:00;;;;;;;7.55;4.45;;;;;;;;;;10532963;28;20024;-67
2022/02/20 05:59:00;;;;;;;6.73;4.50;;;;;;;;;;10529670;28;20047;-66
2022/02/20 06:04:01;;;;;;;6.20;4.30;;;;;;;;;;10533611;28;20358;-63
2022/02/20 06:09:02;;;;;;;7.67;4.43;;;;;;;;;;10532740;28;20095;-62
2022/02/20 06:14:02;;;;;;;4.78;4.28;;;;;;;;;;10533105;28;20468;-61
2022/02/20 06:19:03;;;;;;;7.37;4.30;;;;;;;;;;10539093;28;20039;-61
2022/02/20 06:24:04;;;;;;;5.43;4.13;;;;;;;;;;10541220;28;20445;-61
2022/02/20 06:29:04;;;;;;;7.75;4.15;;;;;;;;;;10540351;28;20115;-61
2022/02/20 06:34:04;;;;;;;10.98;4.50;;;;;;;;;;10539953;28;20032;-63
2022/02/20 06:39:05;;;;;;;9.43;5.10;;;;;;;;;;10540043;28;20255;-63
2022/02/20 06:44:05;;;;;;;7.60;5.33;;;;;;;;;;10539515;28;20490;-61
2022/02/20 06:49:09;;;;;;;9.00;5.70;;;;;;;;;;10539166;28;20024;-62
2022/02/20 06:54:09;;;;;;;9.00;5.85;;;;;;;;;;10539921;28;20027;-62
2022/02/20 06:59:09;;;;;;;9.88;6.03;;;;;;;;;;10535782;28;20379;-61
2022/02/20 07:04:11;;;;;;;9.70;6.20;;;;;;;;;;10538859;28;20020;-64
2022/02/20 07:09:13;;;;;;;16.30;6.80;;;;;;;;;;10535455;28;20111;-61
2022/02/20 07:14:13;;;;;;;8.95;6.53;;;;;;;;;;10539207;28;20060;-62
2022/02/20 07:19:13;;;;;;;8.60;5.90;;;;;;;;;;10538229;28;20079;-62
2022/02/20 07:24:14;;;;;;;14.67;6.87;;;;;;;;;;10538681;28;20463;-61
2022/02/20 07:29:15;;;;;;;9.63;6.83;;;;;;;;;;10538137;28;20464;-62
2022/02/20 07:34:15;;;;;;;14.80;7.10;;;;;;;;;;10537551;28;20036;-66
2022/02/20 07:39:16;;;;;;;14.63;8.75;;;;;;;;;;10537840;28;20569;-63
2022/02/20 07:44:16;;;;;;;10.85;7.93;;;;;;;;;;10537533;28;20035;-60
2022/02/20 07:49:17;;;;;;;20.27;9.13;;;;;;;;;;10537138;28;20035;-61
2022/02/20 07:54:17;;;;;;;21.50;9.02;;;;;;;;;;10537044;28;20549;-64
2022/02/20 07:59:19;;;;;;;15.97;8.57;;;;;;;;;;10536405;28;20391;-61
2022/02/20 08:04:19;;;;;;;12.65;8.27;;;;;;;;;;10536366;28;20536;-64
2022/02/20 08:09:20;;;;;;;17.02;8.45;;;;;;;;;;10533356;28;20024;-62
2022/02/20 08:14:20;;;;;;;19.10;7.57;;;;;;;;;;10536279;28;20020;-64
2022/02/20 08:19:20;;;;;;;16.20;8.20;;;;;;;;;;10532539;28;20023;-65
2022/02/20 08:24:21;;;;;;;25.37;8.37;;;;;;;;;;10535790;28;20456;-63
2022/02/20 08:29:21;;;;;;;22.77;7.80;;;;;;;;;;10535956;28;20028;-61
2022/02/20 08:34:22;;;;;;;21.95;7.68;;;;;;;;;;10536001;28;20842;-60
2022/02/20 08:39:22;;;;;;;20.77;8.63;;;;;;;;;;10535176;28;20030;-59
2022/02/20 08:44:23;;;;;;;17.27;7.73;;;;;;;;;;10533685;28;20380;-59
2022/02/20 08:49:24;;;;;;;14.40;8.02;;;;;;;;;;10534123;28;20445;-64
2022/02/20 08:54:24;;;;;;;15.03;6.93;;;;;;;;;;10533971;28;20444;-60
2022/02/20 08:59:24;;;;;;;15.50;8.20;;;;;;;;;;10533403;28;20473;-60
2022/02/20 09:04:25;;;;;;;10.20;7.47;;;;;;;;;;10533717;28;20085;-60
2022/02/20 09:09:25;;;;;;;17.10;7.53;;;;;;;;;;10534259;28;20444;-60
2022/02/20 09:14:25;;;;;;;15.90;7.83;;;;;;;;;;10534013;28;20154;-59
2022/02/20 09:19:29;;;;;;;12.65;7.47;;;;;;;;;;10531373;28;20016;-60
2022/02/20 09:24:30;;;;;;;16.23;7.50;;;;;;;;;;10533635;28;20355;-60
2022/02/20 09:29:33;;;;;;;11.30;6.83;;;;;;;;;;10530617;28;20050;-60
2022/02/20 09:34:34;;;;;;;9.75;6.95;;;;;;;;;;10534009;28;20451;-60
2022/02/20 09:39:34;;;;;;;13.98;7.20;;;;;;;;;;10533829;28;20026;-60
2022/02/20 09:44:34;;;;;;;12.55;6.20;;;;;;;;;;10533357;28;20100;-60
2022/02/20 09:49:35;;;;;;;11.20;6.63;;;;;;;;;;10533756;28;20077;-60
2022/02/20 09:54:35;;;;;;;13.20;6.68;;;;;;;;;;10540992;28;20174;-60
2022/02/20 09:59:36;;;;;;;12.65;6.75;;;;;;;;;;10541486;28;20090;-60
2022/02/20 10:04:36;;;;;;;9.30;5.85;;;;;;;;;;10541469;28;20107;-60
2022/02/20 10:09:38;;;;;;;11.87;6.60;;;;;;;;;;10541312;28;20057;-60
2022/02/20 10:14:38;;;;;;;10.30;6.05;;;;;;;;;;10541640;28;20036;-63
2022/02/20 10:20:04;;;;;;;9.67;6.40;;;;;;;;;;10540860;28;20028;-60
2022/02/20 10:25:07;;;;;;;9.63;5.53;;;;;;;;;;10538786;28;20073;-60
2022/02/20 10:30:22;;;;;;;6.53;5.40;;;;;;;;;;10541039;28;20477;-62
2022/02/20 10:35:22;;;;;;;8.13;5.65;;;;;;;;;;10537127;28;20028;-61
2022/02/20 10:40:25;;;;;;;12.00;5.57;;;;;;;;;;10540619;28;20046;-61
2022/02/20 10:45:34;;;;;;;8.95;5.50;;;;;;;;;;10540297;28;20020;-60
2022/02/20 10:50:35;;;;;;;8.90;5.60;;;;;;;;;;10538902;28;20156;-60
2022/02/20 10:55:40;;;;;;;6.60;5.47;;;;;;;;;;10539555;28;20051;-61
2022/02/20 11:00:47;;;;;;;8.68;5.57;;;;;;;;;;10539146;28;20052;-60
2022/02/20 11:05:48;;;;;;;8.13;5.35;;;;;;;;;;10538718;28;20024;-61
2022/02/20 11:10:49;;;;;;;9.45;5.55;;;;;;;;;;10538971;28;20032;-60
2022/02/20 11:15:52;;;;;;;8.55;5.38;;;;;;;;;;10537506;28;20107;-61
2022/02/20 11:20:55;;;;;;;10.93;5.90;;;;;;;;;;10538896;28;20026;-61
2022/02/20 11:25:59;;;;;;;10.75;5.80;;;;;;;;;;10538905;28;20024;-60
2022/02/20 11:30:59;;;;;;;10.13;6.95;;;;;;;;;;10538455;28;20064;-60
2022/02/20 11:36:00;;;;;;;15.23;8.60;;;;;;;;;;10534901;28;20032;-60
2022/02/20 11:41:11;;;;;;;19.60;9.32;;;;;;;;;;10534756;28;20115;-63
2022/02/20 11:46:16;;;;;;;16.40;8.88;;;;;;;;;;10537410;28;20085;-60
2022/02/20 11:51:20;;;;;;;18.65;10.20;;;;;;;;;;10537824;28;20043;-60
2022/02/20 11:56:20;;;;;;;19.60;9.73;;;;;;;;;;10537594;28;20027;-60
2022/02/20 12:01:21;;;;;;;20.27;10.30;;;;;;;;;;10536708;28;20044;-60
2022/02/20 12:06:24;;;;;;;22.38;9.35;;;;;;;;;;10537173;28;20424;-60
2022/02/20 12:11:44;;;;;;;19.75;9.93;;;;;;;;;;10536456;28;20489;-60
2022/02/20 12:16:50;;;;;;;14.65;8.60;;;;;;;;;;10535430;28;20024;-61
2022/02/20 12:21:56;;;;;;;18.17;9.60;;;;;;;;;;10536031;28;20028;-60
2022/02/20 12:26:58;;;;;;;15.23;9.20;;;;;;;;;;10535637;28;20024;-60
2022/02/20 12:32:12;;;;;;;16.40;8.80;;;;;;;;;;10535677;28;20031;-60
2022/02/20 12:37:14;;;;;;;22.30;9.23;;;;;;;;;;10535431;28;20391;-61
2022/02/20 12:42:14;;;;;;;29.70;10.10;;;;;;;;;;10532271;28;20505;-64
2022/02/20 12:47:14;;;;;;;26.77;11.10;;;;;;;;;;10533070;28;20051;-61
2022/02/20 12:52:15;;;;;;;23.57;10.67;;;;;;;;;;10535021;28;20802;-61
2022/02/20 12:57:17;;;;;;;23.63;10.48;;;;;;;;;;10534603;28;20418;-62
2022/02/20 13:02:31;;;;;;;24.17;10.13;;;;;;;;;;10535228;28;20035;-61
2022/02/20 13:07:39;;;;;;;21.27;9.73;;;;;;;;;;10534894;28;20074;-60
2022/02/20 13:12:39;;;;;;;23.48;9.35;;;;;;;;;;10534240;28;20417;-62
2022/02/20 13:17:52;;;;;;;20.43;10.07;;;;;;;;;;10532743;28;20028;-61
2022/02/20 13:22:54;;;;;;;20.77;10.32;;;;;;;;;;10534099;28;20131;-61
2022/02/20 13:27:58;;;;;;;21.80;9.88;;;;;;;;;;10533306;28;20531;-63
2022/02/20 13:33:09;;;;;;;20.52;8.90;;;;;;;;;;10532892;28;20096;-61
2022/02/20 13:38:12;;;;;;;19.60;9.18;;;;;;;;;;10532024;28;20035;-70
2022/02/20 13:43:14;;;;;;;19.67;9.20;;;;;;;;;;10532048;28;20028;-70
2022/02/20 13:48:35;;;;;;;17.05;9.25;;;;;;;;;;10530340;28;20081;-60
2022/02/20 13:53:37;;;;;;;18.70;9.23;;;;;;;;;;10532991;28;20031;-62
2022/02/20 13:58:40;;;;;;;21.00;9.23;;;;;;;;;;10529751;28;20052;-60
2022/02/20 14:03:41;;;;;;;20.40;9.55;;;;;;;;;;10530957;28;20040;-61
2022/02/20 14:08:42;;;;;;;25.63;9.27;;;;;;;;;;10533156;28;20039;-61
2022/02/20 14:13:42;;;;;;;19.23;9.07;;;;;;;;;;10532617;28;20472;-61
2022/02/20 14:18:45;;;;;;;21.23;9.90;;;;;;;;;;10532492;28;20522;-60
2022/02/20 14:23:47;;;;;;;22.50;9.48;;;;;;;;;;10532717;28;20028;-60
2022/02/20 14:28:50;;;;;;;17.63;8.07;;;;;;;;;;10532771;28;20194;-61
2022/02/20 14:33:53;;;;;;;21.70;9.43;;;;;;;;;;10532738;28;20024;-62
2022/02/20 14:38:54;;;;;;;16.85;9.07;;;;;;;;;;10536596;28;20077;-61
2022/02/20 14:43:55;;;;;;;16.67;8.65;;;;;;;;;;10540428;28;20131;-62
2022/02/20 14:48:56;;;;;;;16.85;8.27;;;;;;;;;;10542050;28;20114;-64
2022/02/20 14:53:58;;;;;;;16.25;8.73;;;;;;;;;;10539697;28;20032;-63
2022/02/20 14:59:00;;;;;;;18.13;9.02;;;;;;;;;;10536057;28;20408;-61
2022/02/20 15:04:03;;;;;;;15.60;8.70;;;;;;;;;;10539665;28;20048;-65
2022/02/20 15:09:03;;;;;;;16.70;9.18;;;;;;;;;;10535933;28;20020;-62
2022/02/20 15:14:04;;;;;;;14.23;8.27;;;;;;;;;;10538847;28;20035;-62
2022/02/20 15:19:06;;;;;;;16.27;7.93;;;;;;;;;;10539167;28;20955;-63
2022/02/20 15:24:07;;;;;;;16.73;8.85;;;;;;;;;;10538449;28;20342;-62
2022/02/20 15:29:10;;;;;;;16.48;8.07;;;;;;;;;;10538520;28;20291;-64
2022/02/20 15:34:10;;;;;;;13.30;7.50;;;;;;;;;;10538486;28;20103;-64
2022/02/20 15:39:11;;;;;;;13.90;8.40;;;;;;;;;;10537718;28;20024;-61
2022/02/20 15:44:11;;;;;;;13.60;7.50;;;;;;;;;;10537683;28;20031;-66
2022/02/20 15:49:12;;;;;;;17.27;7.90;;;;;;;;;;10536043;28;20081;-68
2022/02/20 15:54:13;;;;;;;14.75;8.07;;;;;;;;;;10537223;28;20030;-66
2022/02/20 15:59:13;;;;;;;21.20;8.20;;;;;;;;;;10536766;28;20140;-63
2022/02/20 16:04:13;;;;;;;20.17;7.90;;;;;;;;;;10536406;28;20034;-64
2022/02/20 16:09:14;;;;;;;12.43;7.47;;;;;;;;;;10533824;28;20093;-65
2022/02/20 16:14:14;;;;;;;11.53;7.23;;;;;;;;;;10536803;28;20433;-66
2022/02/20 16:19:15;;;;;;;13.98;7.57;;;;;;;;;;10533242;28;20498;-61
2022/02/20 16:24:15;;;;;;;17.83;7.93;;;;;;;;;;10535958;28;20475;-61
2022/02/20 16:29:16;;;;;;;14.48;8.07;;;;;;;;;;10535575;28;20544;-61
2022/02/20 16:34:17;;;;;;;15.30;7.93;;;;;;;;;;10534498;28;20024;-67
2022/02/20 16:39:18;;;;;;;17.80;7.67;;;;;;;;;;10535314;28;20017;-64
2022/02/20 16:44:20;;;;;;;15.35;9.07;;;;;;;;;;10535319;28;20425;-64
2022/02/20 16:49:21;;;;;;;17.10;8.45;;;;;;;;;;10535408;28;20036;-62
2022/02/20 16:54:26;;;;;;;19.07;9.10;;;;;;;;;;10535357;28;20023;-62
2022/02/20 16:59:27;;;;;;;17.33;8.18;;;;;;;;;;10534090;28;20046;-69
2022/02/20 17:04:27;;;;;;;15.67;8.47;;;;;;;;;;10534580;28;20110;-62
2022/02/20 17:09:27;;;;;;;16.97;9.43;;;;;;;;;;10534795;28;20559;-65
2022/02/20 17:14:28;;;;;;;16.00;9.10;;;;;;;;;;10532299;28;20165;-61
2022/02/20 17:19:28;;;;;;;14.93;9.27;;;;;;;;;;10528131;28;20035;-61
2022/02/20 17:24:28;;;;;;;20.00;9.67;;;;;;;;;;10534282;28;20523;-61
2022/02/20 17:29:29;;;;;;;12.50;8.90;;;;;;;;;;10534140;28;20035;-63
2022/02/20 17:34:30;;;;;;;17.40;9.15;;;;;;;;;;10530608;28;20041;-63
2022/02/20 17:39:30;;;;;;;22.30;9.90;;;;;;;;;;10531954;28;20024;-61
2022/02/20 17:44:30;;;;;;;27.43;10.43;;;;;;;;;;10532282;28;20028;-61
2022/02/20 17:49:34;;;;;;;23.57;10.33;;;;;;;;;;10531448;28;20441;-62
2022/02/20 17:54:37;;;;;;;22.75;10.88;;;;;;;;;;10530078;28;20375;-60
2022/02/20 17:59:38;;;;;;;26.45;10.93;;;;;;;;;;10529151;28;20052;-61
2022/02/20 18:04:39;;;;;;;29.20;11.02;;;;;;;;;;10532458;28;20115;-61
2022/02/20 18:09:39;;;;;;;20.77;10.90;;;;;;;;;;10531120;28;20108;-61
2022/02/20 18:14:39;;;;;;;20.07;11.07;;;;;;;;;;10537054;28;20448;-61
2022/02/20 18:19:40;;;;;;;19.67;11.45;;;;;;;;;;10534930;28;20834;-62
2022/02/20 18:24:40;;;;;;;22.27;11.52;;;;;;;;;;10536975;28;20464;-66
2022/02/20 18:29:41;;;;;;;25.93;12.07;;;;;;;;;;10540920;28;20106;-62
2022/02/20 18:34:45;;;;;;;24.27;12.10;;;;;;;;;;10540833;28;20944;-65
2022/02/20 18:39:45;;;;;;;22.08;10.68;;;;;;;;;;10540129;28;20115;-68
2022/02/20 18:44:46;;;;;;;19.27;11.80;;;;;;;;;;10539013;28;20099;-65
2022/02/20 18:49:46;;;;;;;33.93;11.77;;;;;;;;;;10539596;28;20501;-67
2022/02/20 18:54:48;;;;;;;36.70;12.40;;;;;;;;;;10538491;28;20108;-64
2022/02/20 18:59:49;;;;;;;26.92;10.63;;;;;;;;;;10537475;28;20044;-63
2022/02/20 19:04:49;;;;;;;29.53;10.53;;;;;;;;;;10538779;28;20118;-64
2022/02/20 19:09:53;;;;;;;17.77;9.70;;;;;;;;;;10537553;28;20532;-65
2022/02/20 19:14:55;;;;;;;20.02;10.45;;;;;;;;;;10537780;28;20045;-67
2022/02/20 19:19:55;;;;;;;20.88;10.15;;;;;;;;;;10536939;28;20047;-64
2022/02/20 19:24:58;;;;;;;22.50;10.20;;;;;;;;;;10534859;28;20048;-68
2022/02/20 19:30:00;;;;;;;20.10;10.20;;;;;;;;;;10538465;28;20247;-71
2022/02/20 19:35:01;;;;;;;19.98;10.48;;;;;;;;;;10535867;28;20027;-66
2022/02/20 19:40:05;;;;;;;28.77;9.68;;;;;;;;;;10536825;28;20147;-69
2022/02/20 19:45:06;;;;;;;25.20;9.68;;;;;;;;;;10537636;28;20057;-69
2022/02/20 19:50:06;;;;;;;17.98;8.90;;;;;;;;;;10537141;28;20027;-69
2022/02/20 19:55:07;;;;;;;16.15;9.00;;;;;;;;;;10537569;28;20110;-67
2022/02/20 20:00:09;;;;;;;24.92;9.20;;;;;;;;;;10536781;28;20415;-65
2022/02/20 20:05:10;;;;;;;16.77;8.48;;;;;;;;;;10537674;28;20039;-68
2022/02/20 20:10:14;;;;;;;15.25;8.80;;;;;;;;;;10538580;28;20020;-68
2022/02/20 20:15:16;;;;;;;15.80;7.78;;;;;;;;;;10536912;28;20102;-68
2022/02/20 20:20:18;;;;;;;15.82;8.45;;;;;;;;;;10536496;28;20031;-66
2022/02/20 20:25:19;;;;;;;18.63;8.32;;;;;;;;;;10536404;28;20027;-69
2022/02/20 20:30:21;;;;;;;14.68;7.70;;;;;;;;;;10536780;28;20242;-62
2022/02/20 20:35:21;;;;;;;15.50;8.38;;;;;;;;;;10532029;28;20035;-65
2022/02/20 20:40:24;;;;;;;15.77;7.75;;;;;;;;;;10532702;28;20039;-67
2022/02/20 20:45:27;;;;;;;13.13;7.15;;;;;;;;;;10535417;28;20024;-67
2022/02/20 20:50:27;;;;;;;14.38;7.82;;;;;;;;;;10535541;28;20035;-64
2022/02/20 20:55:28;;;;;;;14.95;7.97;;;;;;;;;;10534764;28;20025;-66
2022/02/20 21:00:29;;;;;;;15.13;8.33;;;;;;;;;;10534301;28;20048;-68
2022/02/20 21:05:30;;;;;;;16.40;8.25;;;;;;;;;;10534700;28;20483;-69
2022/02/20 21:10:30;;;;;;;16.35;8.60;;;;;;;;;;10534682;28;20024;-68
2022/02/20 21:15:31;;;;;;;16.47;8.30;;;;;;;;;;10534077;28;20445;-68
2022/02/20 21:20:31;;;;;;;21.27;8.37;;;;;;;;;;10533895;28;20754;-69
2022/02/20 21:25:32;;;;;;;20.45;9.48;;;;;;;;;;10533744;28;20974;-69
2022/02/20 21:30:32;;;;;;;21.67;8.95;;;;;;;;;;10533664;28;20073;-66
2022/02/20 21:35:33;;;;;;;18.92;9.65;;;;;;;;;;10533249;28;20495;-66
2022/02/20 21:40:33;;;;;;;16.17;8.80;;;;;;;;;;10530152;28;20028;-68
2022/02/20 21:45:33;;;;;;;25.88;9.52;;;;;;;;;;10528944;28;20800;-68
2022/02/20 21:50:34;;;;;;;19.10;8.63;;;;;;;;;;10531510;28;20016;-68
2022/02/20 21:55:35;;;;;;;14.68;8.95;;;;;;;;;;10531541;28;20077;-68
2022/02/20 22:00:36;;;;;;;14.40;8.20;;;;;;;;;;10531368;28;20059;-68
2022/02/20 22:05:36;;;;;;;13.50;8.23;;;;;;;;;;10531802;28;20044;-64
2022/02/20 22:10:37;;;;;;;20.77;9.10;;;;;;;;;;10532724;28;20024;-62
2022/02/20 22:15:37;;;;;;;18.63;9.38;;;;;;;;;;10532215;28;20024;-66
2022/02/20 22:20:39;;;;;;;24.37;9.27;;;;;;;;;;10532334;28;20024;-66
2022/02/20 22:25:40;;;;;;;15.00;8.18;;;;;;;;;;10527899;28;20793;-64
2022/02/20 22:30:40;;;;;;;18.10;8.75;;;;;;;;;;10530869;28;20020;-64
2022/02/20 22:35:41;;;;;;;17.80;8.53;;;;;;;;;;10530453;28;20024;-64
2022/02/20 22:40:41;;;;;;;18.13;7.60;;;;;;;;;;10530564;28;20463;-64
2022/02/20 22:45:45;;;;;;;11.52;7.68;;;;;;;;;;10528540;28;20459;-64
2022/02/20 22:50:46;;;;;;;15.80;7.57;;;;;;;;;;10529190;28;20030;-65
2022/02/20 22:55:46;;;;;;;27.13;9.00;;;;;;;;;;10533056;28;20030;-65
2022/02/20 23:00:48;;;;;;;15.17;8.03;;;;;;;;;;10537062;28;20291;-63
2022/02/20 23:05:48;;;;;;;14.10;8.13;;;;;;;;;;10537698;28;20095;-64
2022/02/20 23:10:51;;;;;;;13.13;7.13;;;;;;;;;;10538746;28;20107;-64
2022/02/20 23:15:51;;;;;;;15.27;7.75;;;;;;;;;;10537084;28;20459;-64
2022/02/20 23:20:52;;;;;;;13.40;7.25;;;;;;;;;;10538922;28;20054;-63
2022/02/20 23:25:52;;;;;;;25.27;8.00;;;;;;;;;;10538031;28;20459;-64
2022/02/20 23:30:53;;;;;;;11.20;6.70;;;;;;;;;;10537760;28;20020;-63
2022/02/20 23:35:56;;;;;;;12.88;6.47;;;;;;;;;;10538891;28;20116;-63
2022/02/20 23:40:56;;;;;;;10.75;6.72;;;;;;;;;;10537643;28;20028;-64
2022/02/20 23:45:56;;;;;;;14.07;6.70;;;;;;;;;;10535860;28;20494;-63
2022/02/20 23:50:57;;;;;;;10.13;6.37;;;;;;;;;;10533840;28;20511;-63
2022/02/20 23:55:58;;;;;;;9.33;6.30;;;;;;;;;;10537636;28;20031;-63
